• Join FlightAware (Why Join?)
  • Login
  • US Flag 
01:46AM EST


 

Airport Tracker/Info


-or-


 

Live Flight TrackerFlight Track Log ✈ N779NC ✈ 27-Jun-2013 ✈ KAGS - KATL

Flight Track Log - Related Links

Times and Time Zones

All times are in EDT time to prevent confusion due to time zone crossing. See the N779NC flight status page for this flight to view local times or setup timezone preferences in your user account.

Time Position Orientation Groundspeed Altitude Reporting Facility
EDT Latitude Longitude Course Direction KTS MPH feet Rate Location/Type
08:46AM 33.3267 -82.0100 337° Northwest 352 405 2,100  Level Atlanta Center
08:47AM 33.3194 -82.0775 263° West 280 322 3,800 1,800 Climbing Atlanta Center
08:48AM 33.3122 -82.1572 264° West 256 295 5,800 1,980 Climbing Atlanta Center
08:49AM 33.3053 -82.2392 264° West 256 295 7,800 2,100 Climbing Atlanta Center
08:50AM 33.6791 -82.1396 337° Northwest  Level FlightAware Approximate
08:50AM 33.3044 -82.3314 269° West 261 300 10,000  Level Atlanta Center
08:51AM 33.2994 -82.4283 266° West 277 319 11,100 1,200 Climbing Atlanta Center
08:52AM 33.2903 -82.5403 264° West 316 364 12,500 1,500 Climbing Atlanta Center
08:53AM 33.2897 -82.6572 270° West 341 392 14,100 1,500 Climbing Atlanta Center
08:54AM 33.2867 -82.7764 268° West 356 410 15,600 1,500 Climbing Atlanta Center
08:55AM 33.2839 -82.9033 269° West 377 434 17,100 1,500 Climbing Atlanta Center
08:56AM 33.2786 -83.0325 267° West 391 450 18,600 1,500 Climbing Atlanta Center
08:57AM 33.2650 -83.1619 263° West 398 458 20,100 1,020 Climbing Atlanta Center
08:58AM 33.2533 -83.2961 264° West 406 467 20,700 -420 Climbing Atlanta Center
08:59AM 33.2417 -83.4153 263° West 412 474 19,300 -1,920 Descending Atlanta Center
09:00AM 33.2297 -83.5497 264° West 412 474 16,900 -2,820 Descending Atlanta Center
09:01AM 33.2333 -83.6333 273° West 395 455 15,100 -2,520 Descending Atlanta TRACON
09:02AM 33.2500 -83.7500 280° West 346 398 12,900 -1,140 Descending Atlanta TRACON
09:04AM 33.3667 -83.8833 316° Northwest 299 344 11,700 -780 Descending Atlanta TRACON
09:05AM 33.4000 -83.9500 301° West 241 277 10,600 -1,260 Descending Atlanta TRACON
09:06AM 33.4500 -83.9667 344° North 232 267 9,400 -1,380 Descending Atlanta TRACON
09:06AM 33.4769 -83.9617 North 174 200 8,700 -960 Descending Atlanta Center
09:07AM 33.5353 -83.9367 20° North 184 212 8,000 -300 Descending Atlanta Center
09:08AM 33.5897 -83.9317 North 201 231 8,100 -540 Climbing Atlanta Center
09:09AM 33.6272 -83.9614 327° Northwest 160 184 7,000 -540 Descending Atlanta Center
09:10AM 33.6294 -84.0139 273° West 145 167 7,100 -480 Climbing Atlanta Center
09:12AM 33.6333 -84.1000 273° West 169 194 5,800 -840 Descending Atlanta TRACON
09:13AM 33.6333 -84.1500 270° West 156 180 5,000 -900 Descending Atlanta TRACON
09:14AM 33.6333 -84.2000 270° West 153 176 4,200 -900 Descending Atlanta TRACON